Time;durP1;ratioP1;P1;durP2;ratioP2;P2;SDS_P1;SDS_P2;PMS_P1;PMS_P2;Temp;Humidity;BMP_temperature;BMP_pressure;BME280_temperature;BME280_humidity;BME280_pressure;Samples;Min_cycle;Max_cycle;Signal;HPM_P1;HPM_P2
2023/02/24 00:01:59;;;;;;;;;;;231.00;2252.80;;;;;;5051177;28;19916;-75
2023/02/24 00:04:28;;;;;;;;;;;231.00;2252.80;;;;;;5050336;28;19905;-75
2023/02/24 00:06:54;;;;;;;;;;;230.90;2252.80;;;;;;5047570;28;19905;-74
2023/02/24 00:09:21;;;;;;;;;;;230.90;2252.80;;;;;;5046890;28;19916;-76
2023/02/24 00:11:51;;;;;;;;;;;230.90;2252.80;;;;;;5051252;28;19998;-76
2023/02/24 00:14:17;;;;;;;;;;;230.90;2252.80;;;;;;5043429;28;19995;-75
2023/02/24 00:16:44;;;;;;;;;;;230.90;2252.80;;;;;;5047829;28;19913;-75
2023/02/24 00:19:10;;;;;;;;;;;230.90;2252.80;;;;;;5034455;28;19911;-75
2023/02/24 00:21:35;;;;;;;;;;;230.90;2252.80;;;;;;5043174;28;20019;-74
2023/02/24 00:24:02;;;;;;;;;;;230.90;2252.80;;;;;;5052998;28;20455;-76
2023/02/24 00:26:28;;;;;;;;;;;230.90;2252.80;;;;;;5047334;28;19913;-76
2023/02/24 00:29:02;;;;;;;;;;;230.90;2252.80;;;;;;5038419;28;19939;-76
2023/02/24 00:31:31;;;;;;;;;;;230.90;2252.80;;;;;;5027527;28;19992;-78
2023/02/24 00:33:58;;;;;;;;;;;230.90;2252.80;;;;;;5050256;28;19912;-78
2023/02/24 00:36:24;;;;;;;;;;;230.90;2252.80;;;;;;5033295;28;20343;-78
2023/02/24 00:38:54;;;;;;;;;;;230.90;2252.80;;;;;;5046473;28;19966;-77
2023/02/24 00:41:21;;;;;;;;;;;230.90;2252.80;;;;;;5033024;28;19920;-77
2023/02/24 00:43:47;;;;;;;;;;;230.80;2252.80;;;;;;5050026;28;19904;-77
2023/02/24 00:46:16;;;;;;;;;;;230.80;2252.80;;;;;;5035757;28;19959;-77
2023/02/24 00:48:44;;;;;;;;;;;230.70;2252.80;;;;;;5038392;28;19909;-77
2023/02/24 00:51:11;;;;;;;;;;;230.70;2252.80;;;;;;5046841;28;19951;-77
2023/02/24 00:53:37;;;;;;;;;;;230.70;2252.80;;;;;;5061536;28;19904;-77
2023/02/24 00:56:06;;;;;;;;;;;230.90;2252.80;;;;;;5051351;28;20003;-77
2023/02/24 00:58:33;;;;;;;;;;;230.70;2252.80;;;;;;5048262;28;19911;-77
2023/02/24 01:01:00;;;;;;;;;;;230.70;2252.80;;;;;;5071425;28;19948;-77
2023/02/24 01:03:26;;;;;;;;;;;230.60;2252.80;;;;;;5043431;28;19905;-77
2023/02/24 01:05:52;;;;;;;;;;;230.60;2252.80;;;;;;5049437;28;19912;-77
2023/02/24 01:08:20;;;;;;;;;;;230.60;2252.80;;;;;;5054613;28;19905;-78
2023/02/24 01:13:46;;;;;;;;;;;230.60;2252.80;;;;;;5042991;28;19916;-77
2023/02/24 01:16:13;;;;;;;;;;;230.50;2252.80;;;;;;5051029;28;19909;-83
2023/02/24 01:18:42;;;;;;;;;;;230.50;2252.80;;;;;;5037279;28;19905;-77
2023/02/24 01:21:07;;;;;;;;;;;230.50;2252.80;;;;;;5037101;28;19909;-77
2023/02/24 01:23:33;;;;;;;;;;;230.40;2252.80;;;;;;5055073;28;20339;-77
2023/02/24 01:25:59;;;;;;;;;;;230.40;2252.80;;;;;;5054875;28;19912;-78
2023/02/24 01:28:26;;;;;;;;;;;205.70;2252.80;;;;;;5053163;28;19904;-77
2023/02/24 01:30:52;;;;;;;;;;;205.70;2252.80;;;;;;5054869;28;19904;-77
2023/02/24 01:33:17;;;;;;;;;;;205.70;2252.80;;;;;;5054765;28;19909;-77
2023/02/24 01:35:43;;;;;;;;;;;205.70;2252.80;;;;;;5052998;28;19905;-73
2023/02/24 01:38:10;;;;;;;;;;;205.60;2252.80;;;;;;5054771;28;20301;-76
2023/02/24 01:40:36;;;;;;;;;;;205.60;2252.80;;;;;;5054172;28;20004;-78
2023/02/24 01:43:07;;;;;;;;;;;205.50;2252.80;;;;;;5054658;28;19909;-75
2023/02/24 01:45:35;;;;;;;;;;;205.40;2252.80;;;;;;5054554;28;19983;-75
2023/02/24 01:48:04;;;;;;;;;;;205.50;2252.80;;;;;;5054472;28;19908;-75
2023/02/24 01:50:31;;;;;;;;;;;205.50;2252.80;;;;;;5041100;28;19904;-75
2023/02/24 01:53:01;;;;;;;;;;;205.40;2252.80;;;;;;5053014;28;19924;-74
2023/02/24 01:55:31;;;;;;;;;;;205.40;2252.80;;;;;;5054448;28;19931;-76
2023/02/24 01:57:57;;;;;;;;;;;205.30;2252.80;;;;;;5054187;28;19942;-75
2023/02/24 02:00:43;;;;;;;;;;;205.20;2252.80;;;;;;5054585;28;19904;-78
2023/02/24 02:03:15;;;;;;;;;;;205.20;2252.80;;;;;;5053904;28;19912;-75
2023/02/24 02:05:41;;;;;;;;;;;205.10;2252.80;;;;;;5053803;28;19967;-78
2023/02/24 02:08:08;;;;;;;;;;;205.10;2252.80;;;;;;5054109;28;20362;-75
2023/02/24 02:10:34;;;;;;;;;;;205.10;2252.80;;;;;;5052973;28;19904;-75
2023/02/24 02:12:59;;;;;;;;;;;205.10;2252.80;;;;;;5054088;28;19912;-76
2023/02/24 02:15:27;;;;;;;;;;;205.00;2252.80;;;;;;5054082;28;19927;-75
2023/02/24 02:17:59;;;;;;;;;;;204.90;2252.80;;;;;;5053542;28;20387;-76
2023/02/24 02:20:41;;;;;;;;;;;204.90;2252.80;;;;;;5054116;28;19905;-76
2023/02/24 02:23:09;;;;;;;;;;;204.90;2252.80;;;;;;5053104;28;19911;-75
2023/02/24 02:25:35;;;;;;;;;;;204.90;2252.80;;;;;;5046120;28;19922;-75
2023/02/24 02:28:07;;;;;;;;;;;204.80;2252.80;;;;;;5053912;28;19905;-76
2023/02/24 02:30:51;;;;;;;;;;;204.80;2252.80;;;;;;5053591;28;20022;-75
2023/02/24 02:33:35;;;;;;;;;;;204.80;2252.80;;;;;;5053833;28;20277;-76
2023/02/24 02:36:11;;;;;;;;;;;180.10;2252.80;;;;;;5052325;28;19912;-75
2023/02/24 02:38:49;;;;;;;;;;;180.00;2252.80;;;;;;5053500;28;20022;-75
2023/02/24 02:41:21;;;;;;;;;;;180.00;2048.00;;;;;;5053537;28;19947;-75
2023/02/24 02:43:55;;;;;;;;;;;180.00;2099.20;;;;;;5053492;28;19989;-76
2023/02/24 02:46:33;;;;;;;;;;;180.00;1971.20;;;;;;5052171;28;19915;-75
2023/02/24 02:49:02;;;;;;;;;;;179.90;2252.80;;;;;;5051977;28;19905;-75
2023/02/24 02:51:32;;;;;;;;;;;179.90;2252.80;;;;;;5053376;28;19904;-75
2023/02/24 02:53:58;;;;;;;;;;;179.90;2252.80;;;;;;5052081;28;19998;-76
2023/02/24 02:56:32;;;;;;;;;;;179.90;2252.80;;;;;;5053335;28;19920;-75
2023/02/24 02:58:58;;;;;;;;;;;179.90;2252.80;;;;;;5053494;28;19908;-75
2023/02/24 03:01:27;;;;;;;;;;;179.90;2252.80;;;;;;5053332;28;20027;-75
2023/02/24 03:03:55;;;;;;;;;;;179.90;2252.80;;;;;;5051769;28;19926;-79
2023/02/24 03:06:26;;;;;;;;;;;179.90;2252.80;;;;;;5053297;28;20404;-75
2023/02/24 03:08:55;;;;;;;;;;;179.90;2252.80;;;;;;5052014;28;19912;-75
2023/02/24 03:11:21;;;;;;;;;;;179.90;2252.80;;;;;;5053347;28;20377;-75
2023/02/24 03:13:48;;;;;;;;;;;179.90;2252.80;;;;;;5052141;28;19904;-79
2023/02/24 03:16:16;;;;;;;;;;;179.90;2227.20;;;;;;5055802;28;19935;-75
2023/02/24 03:18:49;;;;;;;;;;;179.90;2252.80;;;;;;5055501;28;19983;-76
2023/02/24 03:21:18;;;;;;;;;;;179.80;2252.80;;;;;;5044261;28;19904;-75
2023/02/24 03:23:49;;;;;;;;;;;179.80;2252.80;;;;;;5057210;28;20357;-75
2023/02/24 03:26:22;;;;;;;;;;;179.80;2252.80;;;;;;5057452;28;20413;-78
2023/02/24 03:29:06;;;;;;;;;;;179.80;2252.80;;;;;;5055734;28;20318;-75
2023/02/24 03:31:45;;;;;;;;;;;179.80;2252.80;;;;;;5055904;28;19911;-75
2023/02/24 03:34:10;;;;;;;;;;;179.80;2252.80;;;;;;5043986;28;19905;-75
2023/02/24 03:36:36;;;;;;;;;;;179.80;2252.80;;;;;;5055719;28;19961;-76
2023/02/24 03:39:04;;;;;;;;;;;179.80;2252.80;;;;;;5055689;28;19971;-75
2023/02/24 03:41:42;;;;;;;;;;;179.80;2252.80;;;;;;5056706;28;19920;-75
2023/02/24 03:44:09;;;;;;;;;;;179.80;2252.80;;;;;;5056933;28;19904;-77
2023/02/24 03:46:36;;;;;;;;;;;179.70;2252.80;;;;;;5055532;28;19905;-75
2023/02/24 03:49:11;;;;;;;;;;;179.70;2252.80;;;;;;5055354;28;19991;-75
2023/02/24 03:51:37;;;;;;;;;;;179.70;2252.80;;;;;;5056822;28;19922;-75
2023/02/24 03:54:07;;;;;;;;;;;179.60;2252.80;;;;;;5056748;28;19908;-75
2023/02/24 03:56:44;;;;;;;;;;;179.60;2252.80;;;;;;5056548;28;19971;-75
2023/02/24 03:59:22;;;;;;;;;;;179.60;2252.80;;;;;;5056559;28;19905;-75
2023/02/24 04:02:07;;;;;;;;;;;179.70;2252.80;;;;;;5056618;28;20453;-75
2023/02/24 04:04:42;;;;;;;;;;;179.70;2252.80;;;;;;5054822;28;19904;-76
2023/02/24 04:07:12;;;;;;;;;;;179.60;2252.80;;;;;;5055163;28;19909;-75
2023/02/24 04:09:37;;;;;;;;;;;179.60;2252.80;;;;;;5056328;28;20427;-76
2023/02/24 04:12:09;;;;;;;;;;;179.70;2252.80;;;;;;5056383;28;19909;-75
2023/02/24 04:14:57;;;;;;;;;;;179.70;2252.80;;;;;;5056298;28;20338;-75
2023/02/24 04:17:32;;;;;;;;;;;179.70;2252.80;;;;;;4996220;28;20032;-75
2023/02/24 04:20:08;;;;;;;;;;;179.70;2252.80;;;;;;5014513;28;19909;-75
2023/02/24 04:22:35;;;;;;;;;;;179.70;2099.20;;;;;;5014087;28;19912;-75
2023/02/24 04:25:02;;;;;;;;;;;179.70;1920.00;;;;;;5014471;28;19952;-75
2023/02/24 04:27:27;;;;;;;;;;;179.60;2252.80;;;;;;5013463;28;19909;-77
2023/02/24 04:29:55;;;;;;;;;;;179.60;2252.80;;;;;;5013870;28;19938;-76
2023/02/24 04:32:25;;;;;;;;;;;179.60;2252.80;;;;;;5014023;28;19905;-75
2023/02/24 04:34:51;;;;;;;;;;;179.60;2252.80;;;;;;5013913;28;19940;-75
2023/02/24 04:37:21;;;;;;;;;;;179.60;2252.80;;;;;;5013573;28;19913;-78
2023/02/24 04:39:49;;;;;;;;;;;179.60;2252.80;;;;;;5013873;28;19910;-78
2023/02/24 04:42:15;;;;;;;;;;;179.60;2252.80;;;;;;4997170;28;20422;-75
2023/02/24 04:44:41;;;;;;;;;;;179.60;2252.80;;;;;;5013777;28;20342;-75
2023/02/24 04:47:08;;;;;;;;;;;179.60;2252.80;;;;;;5013843;28;19912;-75
2023/02/24 04:49:34;;;;;;;;;;;179.60;2252.80;;;;;;5013931;28;19905;-75
2023/02/24 04:51:59;;;;;;;;;;;179.50;2252.80;;;;;;5013481;28;19992;-76
2023/02/24 04:54:25;;;;;;;;;;;179.60;2252.80;;;;;;5035913;28;19927;-75
2023/02/24 04:56:51;;;;;;;;;;;179.60;2252.80;;;;;;5055360;28;19912;-75
2023/02/24 04:59:18;;;;;;;;;;;179.60;2252.80;;;;;;5055607;28;20322;-75
2023/02/24 05:01:43;;;;;;;;;;;179.60;2252.80;;;;;;5055236;28;19912;-75
2023/02/24 05:04:10;;;;;;;;;;;179.50;2252.80;;;;;;5054109;28;19905;-76
2023/02/24 05:06:39;;;;;;;;;;;179.50;2252.80;;;;;;5055363;28;19999;-75
2023/02/24 05:09:12;;;;;;;;;;;179.60;2252.80;;;;;;5054005;28;19912;-77
2023/02/24 05:11:42;;;;;;;;;;;179.60;2252.80;;;;;;5055328;28;20374;-76
2023/02/24 05:14:13;;;;;;;;;;;179.60;2252.80;;;;;;5055058;28;19915;-77
2023/02/24 05:16:40;;;;;;;;;;;179.60;2252.80;;;;;;5055152;28;19954;-75
2023/02/24 05:21:50;;;;;;;;;;;179.60;2252.80;;;;;;5055266;28;20043;-77
2023/02/24 05:24:16;;;;;;;;;;;179.60;2252.80;;;;;;5053719;28;19960;-76
2023/02/24 05:26:41;;;;;;;;;;;179.60;2252.80;;;;;;5054845;28;20400;-77
2023/02/24 05:29:07;;;;;;;;;;;179.60;2252.80;;;;;;5054934;28;20325;-78
2023/02/24 05:31:33;;;;;;;;;;;179.60;2252.80;;;;;;5053824;28;19904;-76
2023/02/24 05:34:01;;;;;;;;;;;179.60;2252.80;;;;;;5053101;28;19905;-76
2023/02/24 05:36:39;;;;;;;;;;;179.60;2252.80;;;;;;5054936;28;20324;-76
2023/02/24 05:39:11;;;;;;;;;;;179.60;2252.80;;;;;;5052364;28;19911;-77
2023/02/24 05:41:40;;;;;;;;;;;179.60;2252.80;;;;;;5054523;28;19925;-75
2023/02/24 05:44:08;;;;;;;;;;;179.70;2252.80;;;;;;5053059;28;19950;-75
2023/02/24 05:46:35;;;;;;;;;;;179.60;2252.80;;;;;;5054678;28;20032;-76
2023/02/24 05:49:08;;;;;;;;;;;179.60;2252.80;;;;;;5054520;28;19911;-76
2023/02/24 05:51:35;;;;;;;;;;;179.70;2252.80;;;;;;5052896;28;19999;-75
2023/02/24 05:54:10;;;;;;;;;;;179.60;2252.80;;;;;;5054477;28;19905;-75
2023/02/24 05:56:37;;;;;;;;;;;179.60;2252.80;;;;;;5052814;28;19913;-75
2023/02/24 05:59:05;;;;;;;;;;;179.60;2252.80;;;;;;5054531;28;19908;-79
2023/02/24 06:01:32;;;;;;;;;;;179.60;2252.80;;;;;;5051723;28;19911;-75
2023/02/24 06:04:04;;;;;;;;;;;179.60;2252.80;;;;;;5047169;28;19910;-75
2023/02/24 06:06:33;;;;;;;;;;;179.60;2252.80;;;;;;5053286;28;19931;-75
2023/02/24 06:09:00;;;;;;;;;;;179.60;2252.80;;;;;;5051631;28;19912;-76
2023/02/24 06:11:26;;;;;;;;;;;179.60;2252.80;;;;;;5048713;28;19909;-75
2023/02/24 06:13:56;;;;;;;;;;;179.60;2252.80;;;;;;5044672;28;20351;-74
2023/02/24 06:16:24;;;;;;;;;;;179.60;2252.80;;;;;;5048318;28;20350;-75
2023/02/24 06:18:50;;;;;;;;;;;179.70;2252.80;;;;;;5066320;28;19910;-76
2023/02/24 06:21:16;;;;;;;;;;;179.70;2252.80;;;;;;5052339;28;19999;-75
2023/02/24 06:23:42;;;;;;;;;;;179.70;2252.80;;;;;;5052885;28;19908;-75
2023/02/24 06:26:18;;;;;;;;;;;179.60;2252.80;;;;;;5025908;28;19954;-75
2023/02/24 06:28:46;;;;;;;;;;;179.70;2252.80;;;;;;5057808;28;20305;-75
2023/02/24 06:31:13;;;;;;;;;;;179.70;2252.80;;;;;;5061779;28;19905;-75
2023/02/24 06:33:39;;;;;;;;;;;179.80;2252.80;;;;;;5062758;28;19943;-75
2023/02/24 06:36:05;;;;;;;;;;;179.90;2252.80;;;;;;5048741;28;19913;-76
2023/02/24 06:38:31;;;;;;;;;;;179.90;2252.80;;;;;;5065460;28;19987;-77
2023/02/24 06:40:57;;;;;;;;;;;179.90;2252.80;;;;;;5065662;28;20015;-75
2023/02/24 06:43:23;;;;;;;;;;;179.90;2252.80;;;;;;5055476;28;19954;-75
2023/02/24 06:45:49;;;;;;;;;;;180.00;2252.80;;;;;;5044608;28;19909;-76
2023/02/24 06:48:14;;;;;;;;;;;180.00;2252.80;;;;;;5024094;28;20378;-76
2023/02/24 06:50:40;;;;;;;;;;;180.10;2252.80;;;;;;5021535;28;20358;-76
2023/02/24 06:53:15;;;;;;;;;;;205.10;2252.80;;;;;;5042145;28;19908;-75
2023/02/24 06:55:42;;;;;;;;;;;180.10;2252.80;;;;;;5046080;28;19913;-75
2023/02/24 06:58:15;;;;;;;;;;;180.10;2252.80;;;;;;5050086;28;19951;-76
2023/02/24 07:00:41;;;;;;;;;;;180.10;2252.80;;;;;;5057568;28;19954;-76
2023/02/24 07:03:14;;;;;;;;;;;180.10;2252.80;;;;;;5045968;28;19905;-75
2023/02/24 07:05:53;;;;;;;;;;;180.10;2252.80;;;;;;5042670;28;19912;-75
2023/02/24 07:08:19;;;;;;;;;;;204.80;2252.80;;;;;;5051456;28;19911;-77
2023/02/24 07:10:50;;;;;;;;;;;204.80;2252.80;;;;;;5060407;28;19919;-75
2023/02/24 07:13:16;;;;;;;;;;;205.00;2252.80;;;;;;5041550;28;20282;-77
2023/02/24 07:15:47;;;;;;;;;;;205.10;2252.80;;;;;;5060009;28;19904;-80
2023/02/24 07:18:13;;;;;;;;;;;205.10;2252.80;;;;;;5030844;28;19913;-76
2023/02/24 07:20:42;;;;;;;;;;;205.20;2252.80;;;;;;5042182;28;20355;-77
2023/02/24 07:23:08;;;;;;;;;;;205.20;2252.80;;;;;;5036384;28;19970;-79
2023/02/24 07:25:34;;;;;;;;;;;205.30;2252.80;;;;;;5070866;28;19908;-78
2023/02/24 07:28:00;;;;;;;;;;;205.40;2252.80;;;;;;5038255;28;19930;-77
2023/02/24 07:30:29;;;;;;;;;;;205.40;2252.80;;;;;;5043984;28;20316;-80
2023/02/24 07:32:56;;;;;;;;;;;205.40;2252.80;;;;;;5054491;28;19909;-77
2023/02/24 07:35:22;;;;;;;;;;;205.40;2252.80;;;;;;5050028;28;19905;-80
2023/02/24 07:37:48;;;;;;;;;;;205.50;2252.80;;;;;;5027138;28;19920;-77
2023/02/24 07:40:16;;;;;;;;;;;205.60;2252.80;;;;;;5052240;28;20346;-78
2023/02/24 07:42:42;;;;;;;;;;;205.50;2252.80;;;;;;5056312;28;19921;-80
2023/02/24 07:45:09;;;;;;;;;;;205.50;2252.80;;;;;;5057304;28;19908;-79
2023/02/24 07:47:34;;;;;;;;;;;205.50;2252.80;;;;;;5025591;28;19905;-78
2023/02/24 07:50:02;;;;;;;;;;;205.50;2252.80;;;;;;5057550;28;19904;-81
2023/02/24 07:52:31;;;;;;;;;;;205.50;2252.80;;;;;;5035523;28;19913;-83
2023/02/24 07:54:57;;;;;;;;;;;205.50;2252.80;;;;;;5034643;28;19948;-80
2023/02/24 07:57:24;;;;;;;;;;;205.60;2252.80;;;;;;5040194;28;20358;-77
2023/02/24 07:59:50;;;;;;;;;;;205.60;2252.80;;;;;;5048481;28;19911;-77
2023/02/24 08:02:18;;;;;;;;;;;230.40;2252.80;;;;;;5039588;28;19915;-79
2023/02/24 08:04:48;;;;;;;;;;;230.40;2252.80;;;;;;5046111;28;20269;-80
2023/02/24 08:07:15;;;;;;;;;;;230.40;2252.80;;;;;;5033728;28;20082;-81
2023/02/24 08:12:10;;;;;;;;;;;230.60;2252.80;;;;;;5055341;28;19917;-81
2023/02/24 08:14:43;;;;;;;;;;;230.60;2252.80;;;;;;5037254;28;19904;-78
2023/02/24 08:17:10;;;;;;;;;;;230.60;2252.80;;;;;;5049053;28;19912;-77
2023/02/24 08:19:38;;;;;;;;;;;230.60;2252.80;;;;;;5039363;28;19992;-78
2023/02/24 08:22:23;;;;;;;;;;;230.60;2252.80;;;;;;5049857;28;19911;-78
2023/02/24 08:24:52;;;;;;;;;;;230.60;2252.80;;;;;;5048480;28;19958;-78
2023/02/24 08:27:20;;;;;;;;;;;230.70;2252.80;;;;;;5043008;28;20000;-79
2023/02/24 08:30:00;;;;;;;;;;;230.70;2252.80;;;;;;5046792;28;19959;-78
2023/02/24 08:32:35;;;;;;;;;;;230.70;2252.80;;;;;;5053936;28;19909;-77
2023/02/24 08:35:03;;;;;;;;;;;230.80;2252.80;;;;;;5060935;28;19904;-81
2023/02/24 08:37:33;;;;;;;;;;;230.80;2252.80;;;;;;5040975;28;19919;-80
2023/02/24 08:39:59;;;;;;;;;;;230.80;2252.80;;;;;;5043203;28;20353;-79
2023/02/24 08:42:33;;;;;;;;;;;230.90;2252.80;;;;;;5059007;28;19925;-81
2023/02/24 08:45:02;;;;;;;;;;;231.00;2252.80;;;;;;5032032;28;19949;-81
2023/02/24 08:47:29;;;;;;;;;;;231.20;2252.80;;;;;;5041303;28;19915;-80
2023/02/24 08:49:58;;;;;;;;;;;231.20;2252.80;;;;;;5037869;28;19999;-79
2023/02/24 08:52:27;;;;;;;;;;;256.00;2252.80;;;;;;5040922;28;19912;-79
2023/02/24 08:54:57;;;;;;;;;;;256.00;2252.80;;;;;;5058797;28;20377;-80
2023/02/24 08:57:25;;;;;;;;;;;256.20;2252.80;;;;;;5054125;28;19932;-80
2023/02/24 08:59:56;;;;;;;;;;;256.30;2252.80;;;;;;5042491;28;19904;-76
2023/02/24 09:02:23;;;;;;;;;;;256.40;2252.80;;;;;;5058740;28;19911;-76
2023/02/24 09:04:50;;;;;;;;;;;256.30;2252.80;;;;;;5034143;28;19998;-78
2023/02/24 09:07:21;;;;;;;;;;;256.30;2252.80;;;;;;5028619;28;19912;-73
2023/02/24 09:09:47;;;;;;;;;;;256.40;2252.80;;;;;;5054019;28;19909;-74
2023/02/24 09:12:25;;;;;;;;;;;256.60;2252.80;;;;;;5043623;28;20000;-74
2023/02/24 09:14:54;;;;;;;;;;;256.90;2252.80;;;;;;5045160;28;19905;-73
2023/02/24 09:17:38;;;;;;;;;;;281.70;2278.40;;;;;;5058751;28;19916;-77
2023/02/24 09:20:35;;;;;;;;;;;281.80;2278.40;;;;;;5027306;28;20369;-75
2023/02/24 09:23:04;;;;;;;;;;;281.90;2278.40;;;;;;5050205;28;19905;-74
2023/02/24 09:25:39;;;;;;;;;;;282.00;2278.40;;;;;;5053600;28;19905;-72
2023/02/24 09:28:18;;;;;;;;;;;282.10;2278.40;;;;;;5056309;28;20293;-73
2023/02/24 09:30:57;;;;;;;;;;;282.20;2278.40;;;;;;5064997;28;19928;-72
2023/02/24 09:33:23;;;;;;;;;;;282.30;2278.40;;;;;;5053083;28;19905;-74
2023/02/24 09:35:50;;;;;;;;;;;282.20;2278.40;;;;;;5059270;28;20417;-72
2023/02/24 09:38:17;;;;;;;;;;;282.10;2278.40;;;;;;5051309;28;20046;-73
2023/02/24 09:40:47;;;;;;;;;;;282.40;2278.40;;;;;;5060804;28;19909;-73
2023/02/24 09:43:26;;;;;;;;;;;282.50;2278.40;;;;;;5047083;28;19916;-72
2023/02/24 09:46:13;;;;;;;;;;;282.40;2278.40;;;;;;5052459;28;19905;-74
2023/02/24 09:49:04;;;;;;;;;;;282.50;2278.40;;;;;;5050215;28;19908;-74
2023/02/24 09:51:41;;;;;;;;;;;307.60;2304.00;;;;;;5045533;28;19947;-76
2023/02/24 09:54:17;;;;;;;;;;;307.80;2304.00;;;;;;5047579;28;19912;-73
2023/02/24 09:56:49;;;;;;;;;;;307.80;2304.00;;;;;;5056051;28;19912;-74
2023/02/24 09:59:53;;;;;;;;;;;307.70;2304.00;;;;;;5069419;28;20353;-75
2023/02/24 10:02:19;;;;;;;;;;;307.60;2304.00;;;;;;5032028;28;19905;-74
2023/02/24 10:04:52;;;;;;;;;;;307.60;2304.00;;;;;;5057012;28;19905;-72
2023/02/24 10:07:22;;;;;;;;;;;307.70;2304.00;;;;;;5065762;28;19915;-76
2023/02/24 10:10:18;;;;;;;;;;;307.60;2304.00;;;;;;5065467;28;19931;-75
2023/02/24 10:12:51;;;;;;;;;;;307.80;2304.00;;;;;;5061500;28;19935;-75
2023/02/24 10:15:27;;;;;;;;;;;308.10;2304.00;;;;;;5060803;28;19912;-76
2023/02/24 10:17:55;;;;;;;;;;;332.90;2329.60;;;;;;5041990;28;20340;-74
2023/02/24 10:20:38;;;;;;;;;;;333.10;2329.60;;;;;;5063825;28;19909;-75
2023/02/24 10:23:12;;;;;;;;;;;333.20;2329.60;;;;;;5030003;28;20239;-76
2023/02/24 10:25:52;;;;;;;;;;;333.40;2329.60;;;;;;5055925;28;20286;-76
2023/02/24 10:28:24;;;;;;;;;;;333.50;2329.60;;;;;;5059559;28;20441;-74
2023/02/24 10:31:08;;;;;;;;;;;333.70;2329.60;;;;;;5065364;28;19905;-75
2023/02/24 10:33:43;;;;;;;;;;;358.50;2329.60;;;;;;5071534;28;19904;-76
2023/02/24 10:36:11;;;;;;;;;;;358.70;2329.60;;;;;;5023506;28;20402;-76
2023/02/24 10:38:39;;;;;;;;;;;358.80;2329.60;;;;;;5046084;28;19940;-74
2023/02/24 10:41:08;;;;;;;;;;;359.00;2329.60;;;;;;5046633;28;19927;-75
2023/02/24 10:43:44;;;;;;;;;;;359.20;2329.60;;;;;;5046194;28;19938;-74
2023/02/24 10:46:25;;;;;;;;;;;384.10;2329.60;;;;;;5032621;28;19959;-75
2023/02/24 10:48:59;;;;;;;;;;;384.30;2329.60;;;;;;5052835;28;19904;-74
2023/02/24 10:51:30;;;;;;;;;;;384.60;2329.60;;;;;;5057086;28;19905;-75
2023/02/24 10:54:33;;;;;;;;;;;384.70;2329.60;;;;;;5037523;28;19904;-74
2023/02/24 10:57:17;;;;;;;;;;;384.90;2329.60;;;;;;5054963;28;19912;-74
2023/02/24 11:03:07;;;;;;;;;;;384.80;2329.60;;;;;;5043900;28;20007;-74
2023/02/24 11:09:01;;;;;;;;;;;409.90;2355.20;;;;;;5056700;28;19958;-75
2023/02/24 11:11:24;;;;;;;;;;;410.20;2355.20;;;;;;5058324;28;19912;-74
2023/02/24 11:19:42;;;;;;;;;;;435.50;2355.20;;;;;;5051395;28;20274;-74
2023/02/24 11:22:13;;;;;;;;;;;435.50;2355.20;;;;;;5043660;28;19927;-74
2023/02/24 11:24:39;;;;;;;;;;;435.60;2355.20;;;;;;5046655;28;19905;-75
2023/02/24 11:27:05;;;;;;;;;;;435.70;2355.20;;;;;;5049336;28;20318;-75
2023/02/24 11:29:31;;;;;;;;;;;435.50;2355.20;;;;;;5063826;28;19904;-73
2023/02/24 11:32:15;;;;;;;;;;;435.40;2355.20;;;;;;5048023;28;19911;-74
2023/02/24 11:34:58;;;;;;;;;;;435.50;2355.20;;;;;;5039570;28;19928;-75
2023/02/24 11:37:23;;;;;;;;;;;435.70;2355.20;;;;;;5048750;28;20266;-74
2023/02/24 11:39:55;;;;;;;;;;;435.60;2355.20;;;;;;5062046;28;19917;-73
2023/02/24 11:42:33;;;;;;;;;;;435.80;2355.20;;;;;;5054871;28;19929;-73
2023/02/24 11:45:05;;;;;;;;;;;435.70;2355.20;;;;;;5058799;28;20414;-74
2023/02/24 11:47:42;;;;;;;;;;;435.90;2355.20;;;;;;5046004;28;19904;-75
2023/02/24 11:50:16;;;;;;;;;;;460.80;2380.80;;;;;;5039103;28;19992;-74
2023/02/24 11:52:45;;;;;;;;;;;460.80;2380.80;;;;;;5055554;28;20023;-76
2023/02/24 11:55:34;;;;;;;;;;;461.20;2380.80;;;;;;5029170;28;20463;-75
2023/02/24 11:58:27;;;;;;;;;;;461.10;2380.80;;;;;;5044415;28;20362;-75
2023/02/24 12:01:03;;;;;;;;;;;461.40;2380.80;;;;;;5047122;28;19978;-76
2023/02/24 12:03:35;;;;;;;;;;;461.40;2227.20;;;;;;5062091;28;19909;-75
2023/02/24 12:06:08;;;;;;;;;;;461.70;2201.60;;;;;;5053351;28;19959;-77
2023/02/24 12:08:34;;;;;;;;;;;486.40;2176.00;;;;;;5062814;28;20003;-75
2023/02/24 12:11:12;;;;;;;;;;;461.70;2329.60;;;;;;5046858;28;19905;-74
2023/02/24 12:13:41;;;;;;;;;;;461.50;2355.20;;;;;;5053031;28;19956;-74
2023/02/24 12:16:20;;;;;;;;;;;461.50;2329.60;;;;;;5056851;28;20259;-74
2023/02/24 12:19:11;;;;;;;;;;;461.30;2329.60;;;;;;5053080;28;19909;-74
2023/02/24 12:21:40;;;;;;;;;;;461.40;2380.80;;;;;;5049066;28;20003;-74
2023/02/24 12:24:13;;;;;;;;;;;461.10;2380.80;;;;;;5055779;28;19958;-74
2023/02/24 12:26:47;;;;;;;;;;;461.60;2176.00;;;;;;5050544;28;19991;-75
2023/02/24 12:29:32;;;;;;;;;;;461.30;2201.60;;;;;;5057191;28;19931;-73
2023/02/24 12:32:03;;;;;;;;;;;461.40;2201.60;;;;;;5050836;28;20374;-72
2023/02/24 12:34:29;;;;;;;;;;;461.30;2304.00;;;;;;5066728;28;19904;-76
2023/02/24 12:37:06;;;;;;;;;;;461.00;2380.80;;;;;;5068104;28;19958;-74
2023/02/24 12:39:31;;;;;;;;;;;461.00;2380.80;;;;;;5067953;28;20362;-74
2023/02/24 12:42:06;;;;;;;;;;;461.10;2355.20;;;;;;5058879;28;19926;-75
2023/02/24 12:44:37;;;;;;;;;;;461.10;2227.20;;;;;;5060718;28;19905;-76
2023/02/24 12:47:10;;;;;;;;;;;461.10;2124.80;;;;;;5070273;28;19908;-75
2023/02/24 12:49:36;;;;;;;;;;;461.10;2048.00;;;;;;5068426;28;20324;-76
2023/02/24 12:52:02;;;;;;;;;;;461.30;2048.00;;;;;;5066770;28;19904;-76
2023/02/24 12:54:46;;;;;;;;;;;461.30;2048.00;;;;;;5067997;28;19911;-75
2023/02/24 12:57:12;;;;;;;;;;;461.20;2048.00;;;;;;5061072;28;19926;-75
2023/02/24 12:59:38;;;;;;;;;;;461.40;2099.20;;;;;;5069576;28;20003;-74
2023/02/24 13:02:19;;;;;;;;;;;461.40;1996.80;;;;;;5058629;28;20002;-74
2023/02/24 13:04:51;;;;;;;;;;;461.60;1945.60;;;;;;5039847;28;20003;-75
2023/02/24 13:07:35;;;;;;;;;;;461.50;1945.60;;;;;;5056912;28;20301;-74
2023/02/24 13:10:13;;;;;;;;;;;461.40;1945.60;;;;;;5042640;28;19952;-75
2023/02/24 13:12:41;;;;;;;;;;;461.40;1971.20;;;;;;5046556;28;19936;-75
2023/02/24 13:15:16;;;;;;;;;;;461.60;1945.60;;;;;;5064349;28;19958;-75
2023/02/24 13:17:45;;;;;;;;;;;461.70;1920.00;;;;;;5049295;28;19928;-76
2023/02/24 13:20:13;;;;;;;;;;;461.60;1868.80;;;;;;5053543;28;19928;-74
2023/02/24 13:22:42;;;;;;;;;;;461.40;1894.40;;;;;;5053964;28;19915;-74
2023/02/24 13:25:07;;;;;;;;;;;461.40;1920.00;;;;;;5049511;28;20362;-75
2023/02/24 13:27:34;;;;;;;;;;;461.30;1945.60;;;;;;5048704;28;19984;-75
2023/02/24 13:30:02;;;;;;;;;;;461.20;1920.00;;;;;;5067687;28;19909;-74
2023/02/24 13:32:30;;;;;;;;;;;461.20;1945.60;;;;;;5062991;28;19911;-75
2023/02/24 13:34:57;;;;;;;;;;;461.10;1945.60;;;;;;5057352;28;20433;-75
2023/02/24 13:37:27;;;;;;;;;;;461.10;1945.60;;;;;;5062509;28;19913;-75
2023/02/24 13:39:52;;;;;;;;;;;460.90;2022.40;;;;;;5065327;28;19919;-75
2023/02/24 13:42:26;;;;;;;;;;;460.90;1945.60;;;;;;5063429;28;20374;-76
2023/02/24 13:44:52;;;;;;;;;;;460.80;1971.20;;;;;;5051125;28;19907;-75
2023/02/24 13:47:28;;;;;;;;;;;436.10;1945.60;;;;;;5064618;28;20003;-75
2023/02/24 13:50:05;;;;;;;;;;;436.10;1971.20;;;;;;5062221;28;19957;-75
2023/02/24 13:53:06;;;;;;;;;;;436.10;1971.20;;;;;;5062394;28;20388;-76
2023/02/24 13:55:51;;;;;;;;;;;436.10;2022.40;;;;;;5003534;28;19917;-74
2023/02/24 13:58:16;;;;;;;;;;;436.10;2022.40;;;;;;4997610;28;19920;-74
2023/02/24 14:01:00;;;;;;;;;;;436.10;2022.40;;;;;;4998555;28;19905;-75
2023/02/24 14:03:27;;;;;;;;;;;436.00;2048.00;;;;;;5001243;28;19968;-75
2023/02/24 14:05:54;;;;;;;;;;;435.90;2048.00;;;;;;5003757;28;20004;-74
2023/02/24 14:08:24;;;;;;;;;;;435.90;2022.40;;;;;;5004409;28;19906;-75
2023/02/24 14:10:57;;;;;;;;;;;435.90;2048.00;;;;;;4989332;28;19909;-75
2023/02/24 14:13:26;;;;;;;;;;;435.90;2073.60;;;;;;5001742;28;19932;-75
2023/02/24 14:15:52;;;;;;;;;;;435.70;2048.00;;;;;;4987359;28;20415;-75
2023/02/24 14:18:20;;;;;;;;;;;435.80;2048.00;;;;;;4999175;28;19917;-76
2023/02/24 14:20:45;;;;;;;;;;;435.60;2048.00;;;;;;4987715;28;19906;-75
2023/02/24 14:23:21;;;;;;;;;;;435.60;2048.00;;;;;;5003032;28;19905;-76